createdAt,value
2023-01-10T00:02:22.739Z,6.29
2023-01-10T00:04:53.334Z,6.28
2023-01-10T00:07:25.474Z,6.29
2023-01-10T00:09:57.744Z,6.30
2023-01-10T00:12:47.006Z,6.30
2023-01-10T00:15:21.027Z,6.28
2023-01-10T00:17:53.195Z,6.25
2023-01-10T00:20:26.473Z,6.27
2023-01-10T00:23:01.492Z,6.29
2023-01-10T00:25:36.437Z,6.33
2023-01-10T00:28:15.793Z,6.27
2023-01-10T00:30:55.373Z,6.25
2023-01-10T00:33:27.577Z,6.29
2023-01-10T00:35:59.817Z,6.29
2023-01-10T00:38:33.213Z,6.30
2023-01-10T00:41:26.638Z,6.29
2023-01-10T00:43:58.876Z,6.28
2023-01-10T00:46:31.267Z,6.23
2023-01-10T00:49:08.683Z,6.23
2023-01-10T00:51:40.898Z,6.23
2023-01-10T00:54:14.701Z,6.22
2023-01-10T00:56:45.179Z,6.23
2023-01-10T00:59:17.601Z,6.19
2023-01-10T01:01:49.999Z,6.15
2023-01-10T01:04:23.705Z,6.13
2023-01-10T01:06:55.843Z,6.15
2023-01-10T01:09:27.970Z,6.12
2023-01-10T01:12:00.057Z,6.10
2023-01-10T01:14:32.216Z,6.11
2023-01-10T01:17:04.256Z,6.09
2023-01-10T01:19:36.559Z,6.10
2023-01-10T01:22:08.697Z,6.14
2023-01-10T01:24:40.989Z,6.12
2023-01-10T01:27:13.265Z,6.07
2023-01-10T01:29:45.277Z,6.11
2023-01-10T01:32:17.838Z,6.08
2023-01-10T01:34:50.079Z,6.06
2023-01-10T01:37:22.124Z,6.08
2023-01-10T01:40:11.511Z,6.06
2023-01-10T01:43:04.926Z,6.04
2023-01-10T01:45:41.252Z,6.06
2023-01-10T01:48:29.411Z,6.05
2023-01-10T01:51:07.934Z,5.99
2023-01-10T01:53:45.913Z,5.94
2023-01-10T01:56:22.166Z,5.95
2023-01-10T01:58:57.670Z,5.96
2023-01-10T02:01:48.324Z,5.96
2023-01-10T02:04:23.826Z,5.91
2023-01-10T02:06:58.675Z,5.90
2023-01-10T02:09:36.716Z,5.91
2023-01-10T02:12:09.536Z,5.92
2023-01-10T02:14:43.710Z,5.96
2023-01-10T02:17:17.036Z,5.93
2023-01-10T02:19:55.746Z,5.88
2023-01-10T02:23:06.979Z,5.86
2023-01-10T02:26:02.677Z,5.86
2023-01-10T02:29:13.198Z,5.89
2023-01-10T02:32:08.302Z,5.87
2023-01-10T02:34:50.960Z,5.90
2023-01-10T02:37:32.042Z,5.89
2023-01-10T02:40:11.729Z,5.85
2023-01-10T02:42:51.565Z,5.87
2023-01-10T02:45:31.217Z,5.91
2023-01-10T02:48:03.517Z,5.88
2023-01-10T02:50:53.770Z,5.90
2023-01-10T02:53:30.451Z,5.84
2023-01-10T02:56:30.636Z,5.83
2023-01-10T02:59:18.300Z,5.85
2023-01-10T03:02:01.152Z,5.85
2023-01-10T03:04:41.644Z,5.76
2023-01-10T03:07:23.575Z,5.76
2023-01-10T03:10:03.337Z,5.80
2023-01-10T03:12:42.021Z,5.82
2023-01-10T03:15:17.460Z,5.79
2023-01-10T03:17:55.909Z,5.80
2023-01-10T03:20:51.074Z,5.75
2023-01-10T03:23:26.795Z,5.74
2023-01-10T03:25:59.351Z,5.77
2023-01-10T03:28:36.757Z,5.78
2023-01-10T03:31:13.295Z,5.77
2023-01-10T03:33:47.138Z,5.72
2023-01-10T03:36:31.436Z,5.70
2023-01-10T03:39:11.920Z,5.69
2023-01-10T03:41:50.439Z,5.64
2023-01-10T03:44:45.930Z,5.63
2023-01-10T03:47:28.259Z,5.64
2023-01-10T03:50:06.002Z,5.63
2023-01-10T03:52:41.558Z,5.71
2023-01-10T03:55:17.290Z,5.64
2023-01-10T03:57:50.464Z,5.64
2023-01-10T04:00:24.794Z,5.66
2023-01-10T04:02:58.529Z,5.61
2023-01-10T04:05:29.538Z,5.62
2023-01-10T04:08:03.011Z,5.59
2023-01-10T04:10:35.427Z,5.57
2023-01-10T04:13:08.080Z,5.51
2023-01-10T04:15:41.414Z,5.54
2023-01-10T04:18:16.047Z,5.55
2023-01-10T04:20:49.646Z,5.54
2023-01-10T04:23:22.718Z,5.48
2023-01-10T04:25:54.898Z,5.44
2023-01-10T04:28:27.250Z,5.40
2023-01-10T04:30:59.656Z,5.45
2023-01-10T04:33:32.640Z,5.45
2023-01-10T04:36:04.798Z,5.44
2023-01-10T04:38:36.821Z,5.42
2023-01-10T04:41:09.488Z,5.44
2023-01-10T04:43:41.653Z,5.38
2023-01-10T04:46:14.234Z,5.39
2023-01-10T04:48:46.453Z,5.38
2023-01-10T04:51:18.895Z,5.34
2023-01-10T04:53:50.967Z,5.32
2023-01-10T04:56:24.990Z,5.30
2023-01-10T04:58:57.810Z,5.31
2023-01-10T05:01:30.124Z,5.28
2023-01-10T05:04:03.759Z,5.26
2023-01-10T05:06:37.357Z,5.30
2023-01-10T05:09:07.768Z,5.24
2023-01-10T05:11:40.148Z,5.16
2023-01-10T05:14:13.795Z,5.13
2023-01-10T05:16:46.397Z,5.10
2023-01-10T05:19:18.597Z,5.10
2023-01-10T05:21:52.378Z,5.04
2023-01-10T05:24:24.597Z,5.05
2023-01-10T05:26:58.629Z,5.07
2023-01-10T05:29:31.127Z,5.06
2023-01-10T05:32:03.496Z,5.03
2023-01-10T05:34:36.004Z,4.99
2023-01-10T05:37:08.206Z,5.01
2023-01-10T05:39:41.881Z,5.03
2023-01-10T05:42:12.206Z,5.02
2023-01-10T05:44:44.351Z,4.90
2023-01-10T05:47:16.644Z,4.99
2023-01-10T05:49:48.759Z,4.97
2023-01-10T05:52:20.890Z,4.93
2023-01-10T05:54:53.553Z,4.88
2023-01-10T05:57:26.057Z,4.92
2023-01-10T05:59:58.457Z,4.86
2023-01-10T06:02:31.348Z,4.87
2023-01-10T06:05:03.750Z,4.84
2023-01-10T06:07:36.460Z,4.86
2023-01-10T06:10:09.978Z,4.90
2023-01-10T06:12:43.928Z,4.83
2023-01-10T06:15:17.460Z,4.83
2023-01-10T06:17:49.660Z,4.81
2023-01-10T06:20:22.353Z,4.82
2023-01-10T06:22:56.138Z,4.82
2023-01-10T06:25:29.630Z,4.74
2023-01-10T06:28:01.769Z,4.71
2023-01-10T06:30:35.656Z,4.68
2023-01-10T06:33:09.819Z,4.71
2023-01-10T06:35:42.037Z,4.64
2023-01-10T06:38:14.076Z,4.60
2023-01-10T06:40:46.588Z,4.61
2023-01-10T06:43:18.693Z,4.64
2023-01-10T06:45:51.706Z,4.59
2023-01-10T06:48:23.723Z,4.52
2023-01-10T06:50:55.995Z,4.48
2023-01-10T06:53:28.100Z,4.41
2023-01-10T06:56:00.313Z,4.43
2023-01-10T06:58:35.048Z,4.40
2023-01-10T07:01:07.824Z,4.45
2023-01-10T07:03:41.036Z,4.43
2023-01-10T07:06:13.925Z,4.31
2023-01-10T07:08:48.811Z,4.22
2023-01-10T07:11:21.126Z,4.24
2023-01-10T07:13:53.736Z,4.24
2023-01-10T07:16:26.689Z,4.23
2023-01-10T07:18:59.357Z,4.20
2023-01-10T07:21:31.664Z,4.21
2023-01-10T07:24:03.929Z,4.21
2023-01-10T07:26:36.384Z,4.18
2023-01-10T07:29:09.030Z,4.14
2023-01-10T07:31:42.922Z,4.18
2023-01-10T07:34:15.167Z,4.20
2023-01-10T07:36:47.430Z,4.24
2023-01-10T07:39:19.568Z,4.25
2023-01-10T07:41:53.107Z,4.32
2023-01-10T07:44:26.916Z,4.27
2023-01-10T07:46:59.781Z,4.32
2023-01-10T07:49:31.893Z,4.35
2023-01-10T07:52:03.956Z,4.38
2023-01-10T07:54:36.259Z,4.41
2023-01-10T07:57:08.368Z,4.42
2023-01-10T07:59:40.931Z,4.43
2023-01-10T08:02:14.112Z,4.41
2023-01-10T08:04:46.537Z,4.43
2023-01-10T08:07:19.524Z,4.46
2023-01-10T08:09:51.880Z,4.42
2023-01-10T08:12:25.414Z,4.43
2023-01-10T08:14:57.891Z,4.50
2023-01-10T08:17:29.925Z,4.54
2023-01-10T08:20:01.880Z,4.58
2023-01-10T08:22:34.240Z,4.62
2023-01-10T08:25:06.720Z,4.64
2023-01-10T08:27:39.220Z,4.62
2023-01-10T08:30:13.777Z,4.65
2023-01-10T08:32:46.028Z,4.67
2023-01-10T08:35:18.758Z,4.69
2023-01-10T08:37:51.258Z,4.70
2023-01-10T08:40:23.626Z,4.72
2023-01-10T08:43:01.750Z,4.72
2023-01-10T08:45:34.560Z,4.73
2023-01-10T08:48:09.668Z,4.76
2023-01-10T08:50:41.748Z,4.79
2023-01-10T08:53:15.079Z,4.78
2023-01-10T08:55:47.296Z,4.81
2023-01-10T08:58:19.568Z,4.83
2023-01-10T09:00:52.492Z,4.82
2023-01-10T09:03:24.794Z,4.85
2023-01-10T09:05:57.323Z,4.88
2023-01-10T09:08:29.900Z,4.90
2023-01-10T09:11:03.398Z,4.87
2023-01-10T09:13:34.404Z,4.86
2023-01-10T09:16:07.078Z,4.86
2023-01-10T09:18:39.478Z,4.91
2023-01-10T09:21:11.809Z,4.87
2023-01-10T09:23:44.720Z,4.94
2023-01-10T09:26:16.854Z,4.95
2023-01-10T09:28:49.610Z,5.00
2023-01-10T09:31:22.144Z,5.01
2023-01-10T09:33:54.329Z,5.04
2023-01-10T09:36:26.838Z,5.05
2023-01-10T09:38:59.143Z,5.09
2023-01-10T09:41:52.999Z,5.11
2023-01-10T09:44:39.283Z,5.11
2023-01-10T09:47:23.025Z,5.13
2023-01-10T09:50:08.549Z,5.15
2023-01-10T09:52:45.477Z,5.14
2023-01-10T09:55:27.232Z,5.17
2023-01-10T09:58:02.819Z,5.17
2023-01-10T10:00:43.458Z,5.19
2023-01-10T10:03:24.509Z,5.16
2023-01-10T10:06:11.352Z,5.17
2023-01-10T10:08:45.733Z,5.18
2023-01-10T10:11:45.605Z,5.13
2023-01-10T10:14:27.356Z,5.16
2023-01-10T10:17:16.735Z,5.11
2023-01-10T10:20:01.541Z,5.15
2023-01-10T10:22:46.012Z,5.16
2023-01-10T10:25:31.795Z,5.13
2023-01-10T10:28:34.454Z,5.15
2023-01-10T10:31:16.232Z,5.13
2023-01-10T10:34:02.101Z,5.12
2023-01-10T10:36:42.689Z,5.10
2023-01-10T10:39:19.704Z,5.05
2023-01-10T10:41:59.327Z,5.05
2023-01-10T10:44:42.096Z,5.02
2023-01-10T10:47:18.763Z,4.96
2023-01-10T10:49:56.595Z,4.94
2023-01-10T10:52:32.591Z,4.96
2023-01-10T10:55:07.465Z,4.99
2023-01-10T10:57:55.362Z,5.03
2023-01-10T11:00:34.166Z,5.05
2023-01-10T11:03:14.430Z,5.07
2023-01-10T11:05:48.702Z,5.08
2023-01-10T11:08:23.884Z,5.09
2023-01-10T11:10:58.823Z,5.09
2023-01-10T11:13:44.980Z,5.09
2023-01-10T11:16:32.747Z,5.07
2023-01-10T11:19:23.205Z,5.09
2023-01-10T11:21:58.025Z,5.05
2023-01-10T11:24:37.146Z,5.06
2023-01-10T11:27:20.373Z,5.06
2023-01-10T11:29:54.122Z,5.08
2023-01-10T11:32:31.091Z,5.09
2023-01-10T11:35:06.720Z,5.10
2023-01-10T11:37:39.608Z,5.10
2023-01-10T11:40:29.704Z,5.14
2023-01-10T11:43:22.524Z,5.12
2023-01-10T11:45:58.764Z,5.08
2023-01-10T11:49:05.138Z,5.09
2023-01-10T11:51:39.722Z,5.11
2023-01-10T11:54:19.000Z,5.11
2023-01-10T11:56:59.451Z,5.09
2023-01-10T11:59:33.192Z,5.10
2023-01-10T12:02:14.029Z,5.10
2023-01-10T12:04:49.443Z,5.08
2023-01-10T12:07:21.750Z,5.11
2023-01-10T12:10:03.331Z,5.10
2023-01-10T12:12:36.832Z,5.07
2023-01-10T12:15:25.691Z,5.08
2023-01-10T12:18:00.791Z,5.06
2023-01-10T12:20:36.719Z,4.99
2023-01-10T12:23:30.263Z,5.02
2023-01-10T12:26:11.856Z,5.03
2023-01-10T12:28:50.557Z,5.03
2023-01-10T12:31:25.167Z,5.01
2023-01-10T12:34:03.111Z,5.00
2023-01-10T12:36:45.055Z,4.93
2023-01-10T12:39:23.908Z,4.96
2023-01-10T12:42:29.441Z,4.95
2023-01-10T12:45:08.984Z,4.93
2023-01-10T12:47:55.951Z,4.94
2023-01-10T12:50:33.765Z,4.92
2023-01-10T12:53:08.712Z,4.90
2023-01-10T12:55:43.160Z,4.90
2023-01-10T12:58:22.879Z,4.92
2023-01-10T13:00:59.690Z,4.94
2023-01-10T13:03:35.695Z,4.97
2023-01-10T13:06:08.287Z,4.98
2023-01-10T13:08:43.888Z,4.96
2023-01-10T13:11:22.108Z,5.01
2023-01-10T13:14:02.555Z,4.94
2023-01-10T13:16:44.511Z,4.90
2023-01-10T13:19:29.430Z,4.90
2023-01-10T13:22:23.488Z,4.91
2023-01-10T13:25:03.990Z,4.88
2023-01-10T13:27:37.334Z,4.86
2023-01-10T13:30:30.728Z,4.90
2023-01-10T13:33:06.798Z,4.89
2023-01-10T13:35:44.395Z,4.91
2023-01-10T13:38:26.902Z,4.88
2023-01-10T13:41:05.539Z,4.86
2023-01-10T13:44:07.845Z,4.87
2023-01-10T13:46:49.081Z,4.85
2023-01-10T13:49:46.147Z,4.89
2023-01-10T13:52:35.386Z,4.87
2023-01-10T13:55:29.226Z,4.88
2023-01-10T13:58:02.871Z,4.89
2023-01-10T14:01:04.717Z,4.90
2023-01-10T14:03:58.122Z,4.86
2023-01-10T14:06:43.510Z,4.87
2023-01-10T14:09:37.245Z,4.89
2023-01-10T14:12:19.299Z,4.86
2023-01-10T14:14:59.226Z,4.84
2023-01-10T14:17:33.316Z,4.81
2023-01-10T14:20:16.100Z,4.87
2023-01-10T14:23:02.919Z,4.89
2023-01-10T14:25:37.591Z,4.91
2023-01-10T14:28:22.946Z,4.89
2023-01-10T14:31:05.683Z,4.94
2023-01-10T14:33:44.175Z,4.91
2023-01-10T14:36:22.206Z,4.91
2023-01-10T14:38:57.887Z,4.94
2023-01-10T14:41:37.608Z,4.96
2023-01-10T14:44:25.180Z,4.96
2023-01-10T14:47:03.541Z,4.93
2023-01-10T14:49:51.939Z,4.88
2023-01-10T14:52:27.098Z,4.83
2023-01-10T14:55:08.089Z,4.81
2023-01-10T14:57:42.060Z,4.82
2023-01-10T15:00:19.058Z,4.88
2023-01-10T15:02:52.338Z,4.84
2023-01-10T15:05:29.019Z,4.87
2023-01-10T15:08:18.939Z,4.83
2023-01-10T15:10:53.589Z,4.84
2023-01-10T15:13:32.891Z,4.83
2023-01-10T15:16:08.188Z,4.82
2023-01-10T15:18:45.224Z,4.80
2023-01-10T15:21:22.362Z,4.81
2023-01-10T15:23:54.594Z,4.78
2023-01-10T15:26:33.705Z,4.78
2023-01-10T15:29:19.718Z,4.77
2023-01-10T15:31:56.334Z,4.74
2023-01-10T15:34:33.291Z,4.73
2023-01-10T15:37:08.515Z,4.73
2023-01-10T15:39:43.448Z,4.71
2023-01-10T15:42:16.706Z,4.73
2023-01-10T15:44:52.890Z,4.69
2023-01-10T15:47:44.823Z,4.69
2023-01-10T15:50:27.347Z,4.64
2023-01-10T15:53:02.467Z,4.63
2023-01-10T15:55:46.549Z,4.62
2023-01-10T15:58:29.668Z,4.60
2023-01-10T16:01:04.830Z,4.57
2023-01-10T16:03:40.084Z,4.54
2023-01-10T16:06:24.482Z,4.56
2023-01-10T16:08:59.604Z,4.55
2023-01-10T16:11:57.793Z,4.55
2023-01-10T16:14:29.777Z,4.54
2023-01-10T16:17:03.834Z,4.52
2023-01-10T16:19:37.038Z,4.54
2023-01-10T16:22:09.747Z,4.55
2023-01-10T16:24:45.507Z,4.58
2023-01-10T16:27:17.639Z,4.59
2023-01-10T16:29:49.719Z,4.60
2023-01-10T16:32:22.147Z,4.58
2023-01-10T16:34:54.420Z,4.62
2023-01-10T16:37:26.704Z,4.62
2023-01-10T16:39:59.479Z,4.58
2023-01-10T16:42:49.949Z,4.59
2023-01-10T16:45:22.292Z,4.58
2023-01-10T16:47:54.581Z,4.61
2023-01-10T16:50:26.960Z,4.61
2023-01-10T16:52:59.924Z,4.65
2023-01-10T16:55:39.077Z,4.66
2023-01-10T16:58:12.555Z,4.67
2023-01-10T17:00:47.240Z,4.68
2023-01-10T17:03:23.315Z,4.70
2023-01-10T17:05:56.247Z,4.71
2023-01-10T17:08:28.683Z,4.71
2023-01-10T17:11:06.571Z,4.72
2023-01-10T17:13:42.042Z,4.76
2023-01-10T17:16:18.649Z,4.76
2023-01-10T17:18:52.281Z,4.76
2023-01-10T17:21:25.405Z,4.78
2023-01-10T17:23:57.959Z,4.79
2023-01-10T17:26:30.021Z,4.78
2023-01-10T17:29:02.830Z,4.80
2023-01-10T17:31:34.980Z,4.76
2023-01-10T17:34:07.430Z,4.77
2023-01-10T17:36:40.145Z,4.75
2023-01-10T17:39:13.360Z,4.79
2023-01-10T17:41:45.739Z,4.79
2023-01-10T17:44:19.009Z,4.78
2023-01-10T17:46:52.418Z,4.76
2023-01-10T17:49:25.068Z,4.75
2023-01-10T17:51:59.076Z,4.75
2023-01-10T17:54:31.512Z,4.74
2023-01-10T17:57:03.532Z,4.72
2023-01-10T17:59:37.002Z,4.70
2023-01-10T18:02:11.921Z,4.74
2023-01-10T18:04:44.437Z,4.71
2023-01-10T18:07:16.407Z,4.70
2023-01-10T18:09:48.631Z,4.70
2023-01-10T18:12:20.848Z,4.67
2023-01-10T18:14:52.988Z,4.71
2023-01-10T18:17:25.151Z,4.72
2023-01-10T18:19:57.735Z,4.70
2023-01-10T18:22:47.103Z,4.73
2023-01-10T18:25:19.747Z,4.73
2023-01-10T18:27:52.808Z,4.73
2023-01-10T18:30:25.507Z,4.76
2023-01-10T18:32:58.238Z,4.77
2023-01-10T18:35:32.075Z,4.78
2023-01-10T18:38:02.560Z,4.76
2023-01-10T18:40:34.988Z,4.73
2023-01-10T18:43:07.027Z,4.75
2023-01-10T18:45:40.025Z,4.77
2023-01-10T18:48:14.411Z,4.78
2023-01-10T18:50:47.905Z,4.76
2023-01-10T18:53:20.840Z,4.73
2023-01-10T18:56:01.172Z,4.74
2023-01-10T18:58:34.924Z,4.74
2023-01-10T19:01:10.763Z,4.68
2023-01-10T19:03:43.812Z,4.68
2023-01-10T19:06:18.412Z,4.70
2023-01-10T19:08:52.034Z,4.69
2023-01-10T19:11:26.138Z,4.70
2023-01-10T19:13:59.397Z,4.67
2023-01-10T19:16:33.643Z,4.70
2023-01-10T19:19:09.486Z,4.72
2023-01-10T19:21:42.718Z,4.75
2023-01-10T19:24:24.494Z,4.76
2023-01-10T19:26:57.080Z,4.76
2023-01-10T19:29:30.573Z,4.73
2023-01-10T19:32:04.488Z,4.69
2023-01-10T19:34:36.633Z,4.72
2023-01-10T19:37:09.255Z,4.77
2023-01-10T19:39:41.241Z,4.77
2023-01-10T19:42:13.687Z,4.75
2023-01-10T19:44:46.317Z,4.78
2023-01-10T19:47:18.888Z,4.78
2023-01-10T19:49:51.511Z,4.79
2023-01-10T19:52:23.863Z,4.78
2023-01-10T19:54:55.773Z,4.79
2023-01-10T19:57:28.279Z,4.80
2023-01-10T20:00:00.358Z,4.74
2023-01-10T20:02:32.499Z,4.71
2023-01-10T20:05:04.770Z,4.72
2023-01-10T20:07:36.922Z,4.70
2023-01-10T20:10:11.288Z,4.73
2023-01-10T20:12:44.140Z,4.74
2023-01-10T20:15:16.422Z,4.70
2023-01-10T20:17:48.769Z,4.71
2023-01-10T20:20:21.970Z,4.71
2023-01-10T20:22:57.362Z,4.73
2023-01-10T20:25:29.500Z,4.69
2023-01-10T20:28:02.287Z,4.68
2023-01-10T20:30:34.288Z,4.68
2023-01-10T20:33:07.046Z,4.67
2023-01-10T20:35:40.597Z,4.73
2023-01-10T20:38:12.809Z,4.73
2023-01-10T20:40:47.079Z,4.74
2023-01-10T20:43:19.520Z,4.77
2023-01-10T20:45:51.460Z,4.77
2023-01-10T20:48:24.677Z,4.80
2023-01-10T20:50:57.761Z,4.77
2023-01-10T20:53:30.311Z,4.71
2023-01-10T20:56:07.589Z,4.65
2023-01-10T20:58:41.952Z,4.66
2023-01-10T21:01:24.995Z,4.65
2023-01-10T21:04:06.056Z,4.69
2023-01-10T21:06:38.399Z,4.65
2023-01-10T21:09:11.648Z,4.65
2023-01-10T21:11:57.941Z,4.64
2023-01-10T21:14:34.310Z,4.67
2023-01-10T21:17:09.370Z,4.64
2023-01-10T21:19:42.159Z,4.66
2023-01-10T21:22:14.388Z,4.65
2023-01-10T21:24:49.857Z,4.64
2023-01-10T21:27:21.817Z,4.64
2023-01-10T21:29:54.935Z,4.64
2023-01-10T21:32:27.230Z,4.61
2023-01-10T21:34:59.647Z,4.62
2023-01-10T21:37:34.542Z,4.63
2023-01-10T21:40:08.368Z,4.67
2023-01-10T21:42:45.156Z,4.68
2023-01-10T21:45:20.286Z,4.69
2023-01-10T21:47:53.511Z,4.68
2023-01-10T21:50:26.240Z,4.66
2023-01-10T21:52:58.320Z,4.67
2023-01-10T21:55:30.688Z,4.71
2023-01-10T21:58:02.656Z,4.72
2023-01-10T22:00:38.221Z,4.73
2023-01-10T22:03:10.286Z,4.70
2023-01-10T22:05:42.971Z,4.72
2023-01-10T22:08:15.647Z,4.74
2023-01-10T22:10:47.918Z,4.72
2023-01-10T22:13:19.994Z,4.74
2023-01-10T22:15:58.251Z,4.74
2023-01-10T22:18:32.044Z,4.72
2023-01-10T22:21:04.980Z,4.71
2023-01-10T22:23:43.299Z,4.73
2023-01-10T22:26:18.160Z,4.74
2023-01-10T22:28:50.292Z,4.74
2023-01-10T22:31:23.114Z,4.71
2023-01-10T22:33:55.199Z,4.71
2023-01-10T22:36:27.469Z,4.72
2023-01-10T22:38:59.565Z,4.70
2023-01-10T22:41:31.828Z,4.70
2023-01-10T22:44:05.509Z,4.69
2023-01-10T22:46:37.809Z,4.67
2023-01-10T22:49:09.832Z,4.67
2023-01-10T22:51:42.062Z,4.68
2023-01-10T22:54:16.263Z,4.68
2023-01-10T22:56:48.952Z,4.67
2023-01-10T23:05:00.053Z,4.72
2023-01-10T23:07:32.252Z,4.74
2023-01-10T23:10:04.512Z,4.73
2023-01-10T23:12:36.608Z,4.75
2023-01-10T23:15:10.126Z,4.72
2023-01-10T23:17:42.268Z,4.70
2023-01-10T23:20:15.437Z,4.70
2023-01-10T23:22:48.283Z,4.70
2023-01-10T23:25:20.759Z,4.67
2023-01-10T23:27:52.929Z,4.61
2023-01-10T23:30:26.917Z,4.61
2023-01-10T23:33:01.519Z,4.60
2023-01-10T23:35:33.708Z,4.60
2023-01-10T23:38:05.999Z,4.61
2023-01-10T23:40:38.253Z,4.61
2023-01-10T23:43:10.345Z,4.60
2023-01-10T23:45:43.355Z,4.61
2023-01-10T23:48:16.040Z,4.62
2023-01-10T23:50:50.186Z,4.59
2023-01-10T23:53:22.917Z,4.55
2023-01-10T23:55:55.399Z,4.56
2023-01-10T23:58:28.537Z,4.55
